Time;durP1;ratioP1;P1;durP2;ratioP2;P2;SDS_P1;SDS_P2;PMS_P1;PMS_P2;Temp;Humidity;BMP_temperature;BMP_pressure;BME280_temperature;BME280_humidity;BME280_pressure;Samples;Min_cycle;Max_cycle;Signal;HPM_P1;HPM_P2
2022/06/16 00:01:45;;;;;;;1999.90;999.90;;;21.00;99.90;;;;;;4974273;28;20031;-75
2022/06/16 00:04:10;;;;;;;1999.90;999.90;;;21.00;99.90;;;;;;4970057;28;20031;-83
2022/06/16 00:06:36;;;;;;;1999.90;999.90;;;21.10;99.90;;;;;;4974493;28;20031;-83
2022/06/16 00:09:02;;;;;;;1999.90;999.90;;;21.00;99.90;;;;;;4970522;28;20130;-83
2022/06/16 00:11:28;;;;;;;1999.90;999.90;;;21.00;99.90;;;;;;4963761;28;20398;-75
2022/06/16 00:13:54;;;;;;;1999.90;999.90;;;21.00;99.90;;;;;;4970893;28;20434;-75
2022/06/16 00:16:21;;;;;;;1999.90;999.90;;;21.00;99.90;;;;;;4965180;28;20078;-83
2022/06/16 00:18:48;;;;;;;1999.90;999.90;;;20.90;99.90;;;;;;4969473;28;20122;-75
2022/06/16 00:21:14;;;;;;;1999.90;999.90;;;20.80;99.90;;;;;;4966845;28;20094;-83
2022/06/16 00:23:40;;;;;;;1999.90;999.90;;;20.80;99.90;;;;;;4958567;28;20049;-83
2022/06/16 00:26:12;;;;;;;1999.90;999.90;;;20.70;99.90;;;;;;4973151;28;20028;-75
2022/06/16 00:28:40;;;;;;;1999.90;999.90;;;20.70;99.90;;;;;;4974291;28;20036;-74
2022/06/16 00:31:06;;;;;;;1999.90;999.90;;;20.60;99.90;;;;;;4974436;28;20458;-75
2022/06/16 00:33:33;;;;;;;1999.90;999.90;;;20.60;99.90;;;;;;4973883;28;20441;-75
2022/06/16 00:35:58;;;;;;;1999.90;999.90;;;20.60;99.90;;;;;;4973838;28;20464;-82
2022/06/16 00:38:24;;;;;;;1999.90;999.90;;;20.50;99.90;;;;;;4956479;28;20113;-75
2022/06/16 00:40:51;;;;;;;1999.90;999.90;;;20.50;99.90;;;;;;4974136;28;20042;-82
2022/06/16 00:43:17;;;;;;;1999.90;999.90;;;20.50;99.90;;;;;;4970784;28;20015;-82
2022/06/16 00:45:53;;;;;;;1999.90;999.90;;;20.40;99.90;;;;;;4972902;28;20486;-82
2022/06/16 00:48:27;;;;;;;1999.90;999.90;;;20.40;99.90;;;;;;4974266;28;20094;-83
2022/06/16 00:51:09;;;;;;;1999.90;999.90;;;20.40;99.90;;;;;;4973707;28;20114;-76
2022/06/16 00:53:37;;;;;;;1999.90;999.90;;;20.40;99.90;;;;;;4973156;28;20434;-76
2022/06/16 00:56:04;;;;;;;1999.90;999.90;;;20.30;99.90;;;;;;4974043;28;20031;-75
2022/06/16 00:58:32;;;;;;;1999.90;999.90;;;20.30;99.90;;;;;;4968125;28;20031;-75
2022/06/16 01:00:58;;;;;;;1999.90;999.90;;;20.20;99.90;;;;;;4970297;28;20030;-83
2022/06/16 01:06:22;;;;;;;1999.90;999.90;;;20.20;99.90;;;;;;4973517;28;20029;-75
2022/06/16 01:08:53;;;;;;;1999.90;999.90;;;20.10;99.90;;;;;;4969404;28;20023;-75
2022/06/16 01:15:00;;;;;;;1999.90;999.90;;;20.10;99.90;;;;;;4959917;28;20034;-83
2022/06/16 01:18:03;;;;;;;1999.90;999.90;;;20.00;99.90;;;;;;4955970;28;20401;-75
2022/06/16 01:20:38;;;;;;;1999.90;999.90;;;20.00;99.90;;;;;;4973536;28;20394;-76
2022/06/16 01:23:34;;;;;;;1999.90;999.90;;;19.90;99.90;;;;;;4959500;28;20109;-75
2022/06/16 01:26:40;;;;;;;1999.90;999.90;;;19.90;99.90;;;;;;4972648;28;20058;-83
2022/06/16 01:29:34;;;;;;;1999.90;999.90;;;19.90;99.90;;;;;;4968969;28;20178;-75
2022/06/16 01:32:39;;;;;;;1999.90;999.90;;;19.90;99.90;;;;;;4956269;28;20553;-83
2022/06/16 01:35:28;;;;;;;1999.90;999.90;;;19.90;99.90;;;;;;4972614;28;20039;-83
2022/06/16 01:38:22;;;;;;;1999.90;999.90;;;19.80;99.90;;;;;;4952842;28;20015;-75
2022/06/16 01:40:59;;;;;;;1999.90;999.90;;;19.80;99.90;;;;;;4973633;28;20045;-83
2022/06/16 01:43:50;;;;;;;1999.90;999.90;;;19.80;99.90;;;;;;4971201;28;20023;-75
2022/06/16 01:46:23;;;;;;;1999.90;999.90;;;19.80;99.90;;;;;;4973252;28;20070;-83
2022/06/16 01:48:53;;;;;;;1999.90;999.90;;;19.80;99.90;;;;;;4973063;28;20031;-75
2022/06/16 01:51:28;;;;;;;1999.90;999.90;;;19.80;99.90;;;;;;4973200;28;20031;-82
2022/06/16 01:54:01;;;;;;;1999.90;999.90;;;19.80;99.90;;;;;;4972873;28;20070;-83
2022/06/16 01:56:53;;;;;;;1999.90;999.90;;;19.70;99.90;;;;;;4956120;28;20086;-75
2022/06/16 01:59:25;;;;;;;1999.90;999.90;;;19.70;99.90;;;;;;4957859;28;20051;-82
2022/06/16 02:01:59;;;;;;;1999.90;999.90;;;19.70;99.90;;;;;;4973187;28;20046;-83
2022/06/16 02:04:47;;;;;;;1999.90;999.90;;;19.70;99.90;;;;;;4974980;28;20478;-83
2022/06/16 02:07:22;;;;;;;1999.90;999.90;;;19.70;99.90;;;;;;4976685;28;20098;-84
2022/06/16 02:09:51;;;;;;;1999.90;999.90;;;19.60;99.90;;;;;;4971743;28;20030;-83
2022/06/16 02:15:16;;;;;;;1999.90;999.90;;;19.60;99.90;;;;;;4976647;28;20414;-83
2022/06/16 02:17:42;;;;;;;1999.90;999.90;;;19.60;99.90;;;;;;4975369;28;20394;-76
2022/06/16 02:20:08;;;;;;;1999.90;999.90;;;19.50;99.90;;;;;;4971188;28;20041;-83
2022/06/16 02:22:35;;;;;;;1999.90;999.90;;;19.50;99.90;;;;;;4943481;29;20028;-75
2022/06/16 02:25:01;;;;;;;1999.90;999.90;;;19.60;99.90;;;;;;4952421;28;20077;-76
2022/06/16 02:27:26;;;;;;;1999.90;999.90;;;19.50;99.90;;;;;;4975538;28;20023;-75
2022/06/16 02:29:52;;;;;;;1999.90;999.90;;;19.50;99.90;;;;;;4976672;28;20372;-83
2022/06/16 02:32:25;;;;;;;1999.90;999.90;;;19.50;99.90;;;;;;4976142;28;20023;-83
2022/06/16 02:35:13;;;;;;;1999.90;999.90;;;19.50;99.90;;;;;;4953500;28;20500;-75
2022/06/16 02:37:39;;;;;;;1999.90;999.90;;;19.50;99.90;;;;;;4975861;28;20114;-75
2022/06/16 02:40:42;;;;;;;1999.90;999.90;;;19.50;99.90;;;;;;4976194;28;20110;-75
2022/06/16 02:43:29;;;;;;;1999.90;999.90;;;19.50;99.90;;;;;;4973010;28;20552;-83
2022/06/16 02:46:17;;;;;;;1999.90;999.90;;;19.50;99.90;;;;;;4959019;28;20037;-83
2022/06/16 02:48:57;;;;;;;1999.90;999.90;;;19.50;99.90;;;;;;4943291;28;20026;-75
2022/06/16 02:51:43;;;;;;;1999.90;999.90;;;19.50;99.90;;;;;;4975780;28;20097;-83
2022/06/16 02:54:27;;;;;;;1999.90;999.90;;;19.40;99.90;;;;;;4976020;28;20134;-83
2022/06/16 02:57:08;;;;;;;1999.90;999.90;;;19.40;99.90;;;;;;4967054;28;20072;-83
2022/06/16 02:59:34;;;;;;;1999.90;999.90;;;19.50;99.90;;;;;;4970084;28;20034;-75
2022/06/16 03:02:06;;;;;;;1999.90;999.90;;;19.50;99.90;;;;;;4970657;28;20045;-75
2022/06/16 03:04:33;;;;;;;;;;;19.50;99.90;;;;;;4970999;28;20031;-75
2022/06/16 03:06:59;;;;;;;1999.90;999.90;;;19.50;99.90;;;;;;4975501;28;19906;-75
2022/06/16 03:09:25;;;;;;;1999.90;999.90;;;19.40;99.90;;;;;;4965909;28;20078;-83
2022/06/16 03:11:50;;;;;;;1999.90;999.90;;;19.40;99.90;;;;;;4965771;28;20085;-75
2022/06/16 03:14:16;;;;;;;1999.90;999.90;;;19.40;99.90;;;;;;4969931;28;20386;-75
2022/06/16 03:16:41;;;;;;;1999.90;999.90;;;19.50;99.90;;;;;;4974384;28;20023;-83
2022/06/16 03:19:08;;;;;;;1999.90;999.90;;;19.40;99.90;;;;;;4974823;28;20019;-83
2022/06/16 03:21:33;;;;;;;1999.90;999.90;;;19.40;99.90;;;;;;4972548;28;20026;-75
2022/06/16 03:23:59;;;;;;;1999.90;999.90;;;19.40;99.90;;;;;;4966599;28;20470;-83
2022/06/16 03:26:25;;;;;;;1999.90;999.90;;;19.40;99.90;;;;;;4974982;28;20027;-83
2022/06/16 03:28:50;;;;;;;1999.90;999.90;;;19.40;99.90;;;;;;4975437;28;20054;-75
2022/06/16 03:31:16;;;;;;;1999.90;999.90;;;19.40;99.90;;;;;;4974669;28;20110;-75
2022/06/16 03:33:42;;;;;;;1999.90;999.90;;;19.40;99.90;;;;;;4957776;28;20023;-81
2022/06/16 03:36:10;;;;;;;1999.90;999.90;;;19.40;99.90;;;;;;4976948;28;20045;-83
2022/06/16 03:38:42;;;;;;;1999.90;999.90;;;19.30;99.90;;;;;;4974910;28;20409;-83
2022/06/16 03:41:08;;;;;;;1999.90;999.90;;;19.30;99.90;;;;;;4975028;28;20039;-75
2022/06/16 03:43:34;;;;;;;1999.90;999.90;;;19.40;99.90;;;;;;4965500;28;20368;-83
2022/06/16 03:46:00;;;;;;;1999.90;999.90;;;19.30;99.90;;;;;;4968068;28;20082;-82
2022/06/16 03:48:25;;;;;;;1999.90;999.90;;;19.30;99.90;;;;;;4975079;28;20030;-82
2022/06/16 03:50:51;;;;;;;1999.90;999.90;;;19.30;99.90;;;;;;4957269;28;20031;-83
2022/06/16 03:53:17;;;;;;;1999.90;999.90;;;19.20;99.90;;;;;;4974958;28;20117;-75
2022/06/16 03:55:43;;;;;;;1999.90;999.90;;;19.20;99.90;;;;;;4974728;28;20050;-75
2022/06/16 03:58:11;;;;;;;1999.90;999.90;;;19.20;99.90;;;;;;4954046;28;20094;-82
2022/06/16 04:00:37;;;;;;;1999.90;999.90;;;19.20;99.90;;;;;;4968031;28;20073;-83
2022/06/16 04:05:47;;;;;;;1999.90;999.90;;;19.20;99.90;;;;;;4953468;28;20578;-83
2022/06/16 04:08:13;;;;;;;1999.90;999.90;;;19.20;99.90;;;;;;4974559;28;20097;-83
2022/06/16 04:10:39;;;;;;;1999.90;999.90;;;19.20;99.90;;;;;;4966098;28;20034;-75
2022/06/16 04:13:05;;;;;;;1999.90;999.90;;;19.20;99.90;;;;;;4963447;28;20509;-75
2022/06/16 04:15:31;;;;;;;1999.90;999.90;;;19.20;99.90;;;;;;4974038;28;20031;-83
2022/06/16 04:17:57;;;;;;;1999.90;999.90;;;19.20;99.90;;;;;;4983637;28;20024;-82
2022/06/16 04:20:23;;;;;;;1999.90;999.90;;;19.20;99.90;;;;;;4976762;28;20462;-83
2022/06/16 04:22:53;;;;;;;1999.90;999.90;;;19.20;99.90;;;;;;4941678;29;20031;-75
2022/06/16 04:25:21;;;;;;;1999.90;999.90;;;19.10;99.90;;;;;;4970306;28;20058;-82
2022/06/16 04:27:47;;;;;;;1999.90;999.90;;;19.10;99.90;;;;;;4970402;28;20033;-75
2022/06/16 04:30:15;;;;;;;1999.90;999.90;;;19.10;99.90;;;;;;4971156;28;20027;-75
2022/06/16 04:32:40;;;;;;;1999.90;999.90;;;19.10;99.90;;;;;;4973970;28;20073;-75
2022/06/16 04:35:07;;;;;;;1999.90;999.90;;;19.20;99.90;;;;;;4974098;28;20066;-75
2022/06/16 04:37:33;;;;;;;1999.90;999.90;;;19.20;99.90;;;;;;4973436;28;20027;-75
2022/06/16 04:39:59;;;;;;;1999.90;999.90;;;19.20;99.90;;;;;;4973995;28;20031;-82
2022/06/16 04:42:25;;;;;;;1999.90;999.90;;;19.20;99.90;;;;;;4946789;29;20031;-82
2022/06/16 04:44:51;;;;;;;1999.90;999.90;;;19.30;99.90;;;;;;4970812;28;20026;-75
2022/06/16 04:47:17;;;;;;;1999.90;999.90;;;19.30;99.90;;;;;;4973791;28;20019;-82
2022/06/16 04:49:48;;;;;;;1999.90;999.90;;;19.30;99.90;;;;;;4974352;28;20085;-82
2022/06/16 04:52:17;;;;;;;1999.90;999.90;;;19.30;99.90;;;;;;4973839;28;20059;-82
2022/06/16 04:54:47;;;;;;;1999.90;999.90;;;19.40;99.90;;;;;;4973885;28;20046;-75
2022/06/16 04:57:13;;;;;;;1999.90;999.90;;;19.40;99.90;;;;;;4974130;28;20383;-81
2022/06/16 04:59:40;;;;;;;1999.90;999.90;;;19.40;99.90;;;;;;4958641;28;20039;-75
2022/06/16 05:02:07;;;;;;;1999.90;999.90;;;19.50;99.90;;;;;;4940728;29;20415;-75
2022/06/16 05:04:34;;;;;;;1999.90;999.90;;;19.50;99.90;;;;;;4961880;28;20078;-75
2022/06/16 05:07:01;;;;;;;1999.90;999.90;;;19.50;99.90;;;;;;4971184;28;20018;-82
2022/06/16 05:09:26;;;;;;;1999.90;999.90;;;19.60;99.90;;;;;;4963146;28;20030;-75
2022/06/16 05:11:52;;;;;;;1999.90;999.90;;;19.60;99.90;;;;;;4959755;28;20078;-81
2022/06/16 05:14:18;;;;;;;1999.90;999.90;;;19.60;99.90;;;;;;4960102;28;20041;-75
2022/06/16 05:16:43;;;;;;;1999.90;999.90;;;19.60;99.90;;;;;;4973560;28;20085;-81
2022/06/16 05:19:09;;;;;;;1999.90;999.90;;;19.60;99.90;;;;;;4966915;28;20433;-82
2022/06/16 05:21:35;;;;;;;1999.90;999.90;;;19.60;99.90;;;;;;4961066;28;20031;-81
2022/06/16 05:24:00;;;;;;;1999.90;999.90;;;19.70;99.90;;;;;;4953733;28;20085;-81
2022/06/16 05:26:26;;;;;;;1999.90;999.90;;;19.70;99.90;;;;;;4968656;28;20482;-75
2022/06/16 05:28:52;;;;;;;1999.90;999.90;;;19.80;99.90;;;;;;4972686;28;20031;-81
2022/06/16 05:31:17;;;;;;;1999.90;999.90;;;19.80;99.90;;;;;;4973380;28;20623;-76
2022/06/16 05:33:43;;;;;;;1999.90;999.90;;;19.90;99.90;;;;;;4974260;28;20124;-81
2022/06/16 05:36:11;;;;;;;1999.90;999.90;;;20.00;99.90;;;;;;4970948;28;20078;-82
2022/06/16 05:38:38;;;;;;;1999.90;999.90;;;20.10;99.90;;;;;;4974807;28;20045;-82
2022/06/16 05:41:13;;;;;;;1999.90;999.90;;;20.10;99.90;;;;;;4977907;28;20019;-82
2022/06/16 05:43:40;;;;;;;1999.90;999.90;;;20.10;99.90;;;;;;4960069;28;20449;-75
2022/06/16 05:46:07;;;;;;;1999.90;999.90;;;20.20;99.90;;;;;;4959496;28;20023;-82
2022/06/16 05:48:33;;;;;;;1999.90;999.90;;;20.20;99.90;;;;;;4978288;28;20022;-81
2022/06/16 05:51:07;;;;;;;1999.90;999.90;;;20.20;99.90;;;;;;4977634;28;20094;-75
2022/06/16 05:53:33;;;;;;;1999.90;999.90;;;20.20;99.90;;;;;;4959038;28;20126;-82
2022/06/16 05:55:59;;;;;;;1999.90;999.90;;;20.20;99.90;;;;;;4977392;28;20450;-75
2022/06/16 05:58:24;;;;;;;1999.90;999.90;;;20.20;99.90;;;;;;4973595;28;20031;-75
2022/06/16 06:00:50;;;;;;;1999.90;999.90;;;20.30;99.90;;;;;;4971389;28;20027;-75
2022/06/16 06:03:16;;;;;;;1999.90;999.90;;;20.30;99.90;;;;;;4959497;28;20442;-82
2022/06/16 06:05:42;;;;;;;1999.90;999.90;;;20.40;99.90;;;;;;4974183;28;20540;-75
2022/06/16 06:16:28;;;;;;;1999.90;999.90;;;20.40;99.90;;;;;;4974826;28;20118;-76
2022/06/16 06:18:56;;;;;;;1999.90;999.90;;;20.40;99.90;;;;;;4957999;28;20041;-82
2022/06/16 06:24:07;;;;;;;1999.90;999.90;;;20.50;99.90;;;;;;4963611;28;20041;-81
2022/06/16 06:26:33;;;;;;;1999.90;999.90;;;20.60;99.90;;;;;;4958560;28;20036;-81
2022/06/16 06:28:59;;;;;;;1999.90;999.90;;;20.70;99.90;;;;;;4955088;29;20046;-81
2022/06/16 06:31:24;;;;;;;1999.90;999.90;;;20.70;99.90;;;;;;4961377;28;20105;-76
2022/06/16 06:33:50;;;;;;;1999.90;999.90;;;20.80;99.90;;;;;;4968785;28;20406;-76
2022/06/16 06:36:16;;;;;;;1999.90;999.90;;;20.80;99.90;;;;;;4962802;28;20474;-75
2022/06/16 06:38:41;;;;;;;1999.90;999.90;;;20.90;99.90;;;;;;4943030;29;20023;-76
2022/06/16 06:41:07;;;;;;;1999.90;999.90;;;20.90;99.90;;;;;;4936461;29;20055;-82
2022/06/16 06:43:33;;;;;;;1999.90;999.90;;;21.00;99.90;;;;;;4958971;28;20019;-76
2022/06/16 06:45:59;;;;;;;1999.90;999.90;;;21.10;99.90;;;;;;4968605;28;20023;-76
2022/06/16 06:48:24;;;;;;;1999.90;999.90;;;21.20;99.90;;;;;;4955161;28;20086;-76
2022/06/16 06:50:51;;;;;;;1999.90;999.90;;;21.40;99.90;;;;;;4949271;28;20498;-82
2022/06/16 06:53:17;;;;;;;1999.90;999.90;;;21.50;99.90;;;;;;4938789;28;20474;-76
2022/06/16 06:55:46;;;;;;;1999.90;999.90;;;21.70;99.90;;;;;;4946783;28;20034;-76
2022/06/16 06:58:19;;;;;;;1999.90;999.90;;;21.80;99.90;;;;;;4963098;28;20058;-76
2022/06/16 07:00:45;;;;;;;1999.90;999.90;;;21.90;99.90;;;;;;4951444;28;20071;-76
2022/06/16 07:03:11;;;;;;;1999.90;999.90;;;22.00;99.90;;;;;;4956057;28;20035;-81
2022/06/16 07:05:38;;;;;;;1999.90;999.90;;;22.20;99.90;;;;;;4958192;28;20034;-82
2022/06/16 07:08:05;;;;;;;1999.90;999.90;;;22.30;99.90;;;;;;4956282;28;22049;-76
2022/06/16 07:10:30;;;;;;;1999.90;999.90;;;22.40;99.90;;;;;;4951597;28;20035;-76
2022/06/16 07:12:56;;;;;;;1999.90;999.90;;;22.50;99.90;;;;;;4949418;28;20110;-79
2022/06/16 07:15:22;;;;;;;1999.90;999.90;;;22.60;99.90;;;;;;4950947;28;21002;-76
2022/06/16 07:17:47;;;;;;;1999.90;999.90;;;22.70;99.90;;;;;;4955221;28;20031;-84
2022/06/16 07:20:15;;;;;;;1999.90;999.90;;;22.80;99.90;;;;;;4951905;28;20045;-83
2022/06/16 07:22:42;;;;;;;1999.90;999.90;;;22.90;99.90;;;;;;4954200;28;20047;-81
2022/06/16 07:25:08;;;;;;;1999.90;999.90;;;22.90;99.90;;;;;;4936879;28;20023;-83
2022/06/16 07:27:34;;;;;;;1999.90;999.90;;;22.90;99.90;;;;;;4955500;28;20023;-76
2022/06/16 07:30:00;;;;;;;1999.90;999.90;;;23.00;99.90;;;;;;4951833;28;20031;-82
2022/06/16 07:32:26;;;;;;;1999.90;999.90;;;23.40;99.90;;;;;;4935555;29;20110;-76
2022/06/16 07:34:51;;;;;;;1999.90;999.90;;;23.90;99.90;;;;;;4955158;28;20086;-76
2022/06/16 07:37:18;;;;;;;1999.90;999.90;;;24.50;99.70;;;;;;4952415;29;20047;-76
2022/06/16 07:39:44;;;;;;;1999.90;999.90;;;24.60;98.80;;;;;;4954600;28;20031;-83
2022/06/16 07:42:10;;;;;;;1999.90;999.90;;;25.10;98.20;;;;;;4953459;28;20031;-82
2022/06/16 07:44:36;;;;;;;1999.90;999.90;;;25.40;97.40;;;;;;4963961;28;20042;-83
2022/06/16 07:47:03;;;;;;;1999.90;999.90;;;26.00;96.90;;;;;;4962509;28;20023;-81
2022/06/16 07:49:29;;;;;;;1999.90;999.90;;;26.70;95.90;;;;;;4934879;29;20097;-75
2022/06/16 07:51:59;;;;;;;1999.90;999.90;;;27.80;95.10;;;;;;4940142;28;20042;-75
2022/06/16 07:54:26;;;;;;;1999.90;999.90;;;28.60;93.60;;;;;;4955035;28;20526;-80
2022/06/16 07:56:52;;;;;;;1999.90;999.90;;;29.30;92.80;;;;;;4955410;28;20110;-75
2022/06/16 07:59:17;;;;;;;1999.90;999.90;;;29.90;91.80;;;;;;4952516;29;20110;-77
2022/06/16 08:01:43;;;;;;;1999.90;999.90;;;30.40;91.60;;;;;;4951898;28;20054;-80
2022/06/16 08:04:08;;;;;;;1999.90;999.90;;;31.00;90.90;;;;;;4964005;28;20153;-80
2022/06/16 08:06:36;;;;;;;1999.90;999.90;;;31.20;90.20;;;;;;4952835;28;20059;-75
2022/06/16 08:09:05;;;;;;;1999.90;999.90;;;31.90;89.40;;;;;;4935822;29;20399;-75
2022/06/16 08:14:15;;;;;;;1999.90;999.90;;;33.20;86.30;;;;;;4956688;28;20183;-76
2022/06/16 08:16:42;;;;;;;1999.90;999.90;;;33.60;85.30;;;;;;4939414;28;20030;-80
2022/06/16 08:19:07;;;;;;;1999.90;999.90;;;33.80;84.50;;;;;;4950943;28;20097;-76
2022/06/16 08:21:33;;;;;;;1999.90;999.90;;;34.00;83.70;;;;;;4958669;28;20022;-79
2022/06/16 08:23:59;;;;;;;1999.90;999.90;;;34.20;83.00;;;;;;4950783;29;20031;-80
2022/06/16 08:26:25;;;;;;;1999.90;999.90;;;34.80;81.80;;;;;;4946677;28;20384;-77
2022/06/16 08:28:53;;;;;;;1999.90;999.90;;;34.40;81.60;;;;;;4946318;28;20054;-76
2022/06/16 08:31:20;;;;;;;1999.90;999.90;;;34.40;81.40;;;;;;4920783;29;20123;-76
2022/06/16 08:33:48;;;;;;;1999.90;999.90;;;34.50;81.20;;;;;;4947191;28;20031;-82
2022/06/16 08:36:13;;;;;;;1999.90;999.90;;;34.70;80.90;;;;;;4946805;28;20031;-82
2022/06/16 08:38:39;;;;;;;1999.90;999.90;;;35.00;80.30;;;;;;4931158;29;20043;-82
2022/06/16 08:41:12;;;;;;;1999.90;999.90;;;35.10;79.90;;;;;;4955493;28;20408;-82
2022/06/16 08:43:56;;;;;;;1999.90;999.90;;;35.10;79.30;;;;;;4951623;28;20086;-83
2022/06/16 08:46:27;;;;;;;1999.90;999.90;;;35.10;80.10;;;;;;4955052;28;20023;-82
2022/06/16 08:49:07;;;;;;;1999.90;999.90;;;35.60;79.80;;;;;;4954725;28;20038;-82
2022/06/16 08:51:51;;;;;;;1999.90;999.90;;;36.60;78.30;;;;;;4951711;28;20434;-83
2022/06/16 08:54:28;;;;;;;1999.90;999.90;;;37.00;77.30;;;;;;4950865;28;20039;-82
2022/06/16 08:57:00;;;;;;;1999.90;999.90;;;37.30;76.50;;;;;;4953784;28;20054;-82
2022/06/16 08:59:37;;;;;;;;;;;37.70;75.40;;;;;;4951311;28;20082;-82
2022/06/16 09:02:16;;;;;;;1999.90;999.90;;;37.60;75.60;;;;;;4949380;28;19953;-82
2022/06/16 09:04:51;;;;;;;1999.90;999.90;;;38.30;75.30;;;;;;4952371;28;20031;-81
2022/06/16 09:07:22;;;;;;;1999.90;999.90;;;38.70;74.00;;;;;;4934951;28;20043;-82
2022/06/16 09:12:38;;;;;;;1999.90;999.90;;;38.60;73.00;;;;;;4948969;28;19921;-81
2022/06/16 09:15:40;;;;;;;1999.90;999.90;;;38.90;72.60;;;;;;4953078;28;20027;-81
2022/06/16 09:18:47;;;;;;;1999.90;999.90;;;38.90;72.90;;;;;;4957042;28;20033;-81
2022/06/16 09:21:27;;;;;;;1999.90;999.90;;;38.60;72.80;;;;;;4889623;28;20060;-77
2022/06/16 09:24:19;;;;;;;1999.90;999.90;;;38.10;72.70;;;;;;4960504;28;20032;-82
2022/06/16 09:27:00;;;;;;;1999.90;999.90;;;38.50;72.90;;;;;;4953644;29;20038;-82
2022/06/16 09:29:28;;;;;;;1999.90;999.90;;;38.40;72.50;;;;;;4970714;28;20039;-81
2022/06/16 09:32:29;;;;;;;1999.90;999.90;;;38.80;72.30;;;;;;4939693;28;20515;-81
2022/06/16 09:35:07;;;;;;;1999.90;999.90;;;39.20;71.00;;;;;;4938637;28;20047;-77
2022/06/16 09:37:41;;;;;;;1999.90;999.90;;;39.30;69.90;;;;;;4958505;28;20015;-77
2022/06/16 09:40:35;;;;;;;1999.90;999.90;;;39.60;69.80;;;;;;4942071;29;20490;-81
2022/06/16 09:43:10;;;;;;;1999.90;999.90;;;39.40;69.00;;;;;;4954252;28;20024;-78
2022/06/16 09:45:46;;;;;;;1999.90;999.90;;;39.50;68.80;;;;;;4951487;29;20027;-77
2022/06/16 09:48:18;;;;;;;1999.90;999.90;;;39.40;69.00;;;;;;4953955;28;20506;-77
2022/06/16 09:50:50;;;;;;;1999.90;999.90;;;39.70;69.10;;;;;;4942406;28;20402;-77
2022/06/16 09:53:35;;;;;;;1999.90;999.90;;;39.90;69.10;;;;;;4936718;28;20410;-81
2022/06/16 09:56:10;;;;;;;1999.90;999.90;;;40.30;69.20;;;;;;4956443;28;20047;-82
2022/06/16 09:58:40;;;;;;;1999.90;999.90;;;40.40;67.90;;;;;;4953316;28;20039;-75
2022/06/16 10:01:10;;;;;;;1999.90;999.90;;;40.40;67.70;;;;;;4952104;28;20470;-75
2022/06/16 10:04:00;;;;;;;1999.90;999.90;;;40.30;67.50;;;;;;4958940;28;20031;-76
2022/06/16 10:06:28;;;;;;;1999.90;999.90;;;40.40;67.40;;;;;;4964906;28;20031;-82
2022/06/16 10:09:05;;;;;;;1999.90;999.90;;;39.90;66.80;;;;;;4961989;28;20024;-79
2022/06/16 10:11:38;;;;;;;1999.90;999.90;;;39.90;67.30;;;;;;4943239;28;20070;-76
2022/06/16 10:14:41;;;;;;;1999.90;999.90;;;40.10;66.80;;;;;;4962189;28;20129;-76
2022/06/16 10:17:10;;;;;;;1999.90;999.90;;;40.40;66.70;;;;;;4959671;28;20050;-76
2022/06/16 10:19:39;;;;;;;1999.90;999.90;;;40.50;66.10;;;;;;4950455;28;20034;-83
2022/06/16 10:22:07;;;;;;;1999.90;999.90;;;40.40;65.70;;;;;;4958982;28;20469;-76
2022/06/16 10:24:43;;;;;;;1999.90;999.90;;;40.40;66.40;;;;;;4941241;28;20027;-76
2022/06/16 10:27:10;;;;;;;1999.90;999.90;;;40.60;65.50;;;;;;4967841;28;20027;-76
2022/06/16 10:29:36;;;;;;;1999.90;999.90;;;40.70;65.60;;;;;;4957228;28;20036;-77
2022/06/16 10:32:03;;;;;;;1999.90;999.90;;;40.80;65.70;;;;;;4964281;28;20038;-85
2022/06/16 10:34:30;;;;;;;1999.90;999.90;;;40.40;65.10;;;;;;4968723;28;20164;-89
2022/06/16 10:37:12;;;;;;;1999.90;999.90;;;40.20;64.90;;;;;;4958137;28;20027;-85
2022/06/16 10:39:54;;;;;;;1999.90;999.90;;;40.20;64.80;;;;;;4973292;28;20038;-77
2022/06/16 10:42:20;;;;;;;1999.90;999.90;;;39.60;64.00;;;;;;4974616;28;20031;-86
2022/06/16 10:44:53;;;;;;;1999.90;999.90;;;39.40;64.20;;;;;;4964946;28;20031;-87
2022/06/16 10:47:28;;;;;;;1999.90;999.90;;;39.60;65.70;;;;;;4938813;29;20030;-86
2022/06/16 10:49:53;;;;;;;1999.90;999.90;;;39.50;64.70;;;;;;4939174;28;20071;-78
2022/06/16 10:52:35;;;;;;;1999.90;999.90;;;39.10;64.50;;;;;;4958485;28;20082;-86
2022/06/16 10:55:19;;;;;;;1999.90;999.90;;;39.70;64.90;;;;;;4931878;29;20046;-77
2022/06/16 10:58:01;;;;;;;1999.90;999.90;;;40.00;65.40;;;;;;4980248;28;20026;-87
2022/06/16 11:00:32;;;;;;;1999.90;999.90;;;39.70;64.20;;;;;;4992742;28;20035;-80
2022/06/16 11:03:16;;;;;;;1999.90;999.90;;;40.00;64.50;;;;;;4966318;28;20039;-77
2022/06/16 11:05:59;;;;;;;1999.90;999.90;;;40.00;65.00;;;;;;4993171;28;20025;-81
2022/06/16 11:08:42;;;;;;;1999.90;999.90;;;39.90;63.90;;;;;;4991421;28;20113;-77
2022/06/16 11:11:09;;;;;;;1999.90;999.90;;;39.60;63.90;;;;;;4971384;28;20038;-82
2022/06/16 11:13:48;;;;;;;1999.90;999.90;;;39.50;64.00;;;;;;4979603;28;20031;-79
2022/06/16 11:16:28;;;;;;;1999.90;999.90;;;39.60;64.20;;;;;;4965116;28;20039;-77
2022/06/16 11:18:58;;;;;;;1999.90;999.90;;;39.30;63.80;;;;;;4972742;28;20113;-77
2022/06/16 11:21:28;;;;;;;1999.90;999.90;;;39.00;64.10;;;;;;4993160;28;20043;-77
2022/06/16 11:23:58;;;;;;;1999.90;999.90;;;38.70;63.80;;;;;;4974202;28;20070;-80
2022/06/16 11:26:36;;;;;;;1999.90;999.90;;;38.70;64.70;;;;;;4989664;28;20035;-79
2022/06/16 11:29:39;;;;;;;1999.90;999.90;;;39.40;65.30;;;;;;4993713;28;20021;-84
2022/06/16 11:32:21;;;;;;;1999.90;999.90;;;39.90;65.30;;;;;;4973062;28;20038;-77
2022/06/16 11:34:47;;;;;;;1999.90;999.90;;;39.60;63.20;;;;;;4984713;28;20027;-81
2022/06/16 11:37:32;;;;;;;1999.90;999.90;;;38.40;64.30;;;;;;4987484;28;20053;-79
2022/06/16 11:40:35;;;;;;;1999.90;999.90;;;37.80;65.90;;;;;;4981874;28;20054;-78
2022/06/16 11:43:20;;;;;;;1999.90;999.90;;;37.60;64.30;;;;;;4987978;28;20038;-80
2022/06/16 11:45:52;;;;;;;1999.90;999.90;;;37.90;64.80;;;;;;4992163;28;20053;-82
2022/06/16 11:48:26;;;;;;;;;;;38.80;63.90;;;;;;4974866;28;20082;-77
2022/06/16 11:50:58;;;;;;;1999.90;999.90;;;39.00;63.90;;;;;;4987876;28;19900;-81
2022/06/16 11:53:42;;;;;;;1999.90;999.90;;;39.20;62.90;;;;;;4979752;28;20085;-80
2022/06/16 11:56:24;;;;;;;1999.90;999.90;;;39.20;62.80;;;;;;4997941;28;20039;-86
2022/06/16 11:59:20;;;;;;;1999.90;999.90;;;39.40;62.90;;;;;;4955563;29;20778;-88
2022/06/16 12:01:56;;;;;;;1999.90;999.90;;;39.30;62.70;;;;;;4961997;28;20039;-86
2022/06/16 12:04:28;;;;;;;1999.90;999.90;;;39.60;63.10;;;;;;4973717;28;20033;-77
2022/06/16 12:07:15;;;;;;;1999.90;999.90;;;39.70;63.40;;;;;;4973074;28;20458;-87
2022/06/16 12:10:17;;;;;;;1999.90;999.90;;;39.90;62.70;;;;;;4947525;29;20046;-84
2022/06/16 12:13:12;;;;;;;1999.90;999.90;;;39.80;62.80;;;;;;4944777;28;20119;-84
2022/06/16 12:15:44;;;;;;;1999.90;999.90;;;39.40;62.80;;;;;;4970402;28;20131;-77
2022/06/16 12:18:28;;;;;;;;;;;39.20;62.40;;;;;;4967082;28;20015;-89
2022/06/16 12:20:59;;;;;;;1999.90;999.90;;;38.60;62.70;;;;;;4951708;28;19910;-77
2022/06/16 12:23:50;;;;;;;1999.90;999.90;;;38.30;61.90;;;;;;4951049;29;20031;-77
2022/06/16 12:26:29;;;;;;;1999.90;999.90;;;38.00;62.10;;;;;;4945718;28;20027;-86
2022/06/16 12:29:24;;;;;;;1999.90;999.90;;;37.90;62.70;;;;;;4966715;28;20030;-86
2022/06/16 12:32:20;;;;;;;1999.90;999.90;;;38.30;63.30;;;;;;4892102;28;20041;-87
2022/06/16 12:35:13;;;;;;;1999.90;999.90;;;38.60;63.60;;;;;;4970851;28;20070;-77
2022/06/16 12:37:49;;;;;;;1999.90;999.90;;;39.20;63.20;;;;;;4972347;28;20030;-77
2022/06/16 12:40:35;;;;;;;1999.90;999.90;;;39.50;61.80;;;;;;4952976;28;20447;-88
2022/06/16 12:43:09;;;;;;;1999.90;999.90;;;39.60;62.30;;;;;;4956820;28;20015;-84
2022/06/16 12:45:41;;;;;;;1999.90;999.90;;;39.40;61.30;;;;;;4972103;28;20038;-86
2022/06/16 12:48:18;;;;;;;1999.90;999.90;;;39.20;62.10;;;;;;4971535;28;20026;-86
2022/06/16 12:50:54;;;;;;;1999.90;999.90;;;38.40;62.60;;;;;;4971402;28;20042;-80
2022/06/16 12:53:31;;;;;;;1999.90;999.90;;;37.40;63.40;;;;;;4960887;28;20409;-76
2022/06/16 12:56:28;;;;;;;1999.90;999.90;;;37.20;63.90;;;;;;4951837;28;20039;-84